Nearby METAR Reports

 

YSCB - Canberra (civ/Mi, Australia
Distance from station: NNW 6km
Updated: Fri, 24-Nov-2017 12:00am AEDT
Clear
Clear
 Wind from S
Wind: S 6 km/h
Temperature: 14°C
Dew Point: 11°C
Humidity: 82%
Barometer: 1017 hPa
Clouds: Clear
Visibility: 10 km
2017/11/23 13:00 YSCB 231300Z AUTO 19003KT 9999 // NCD 14/11 Q1017
YCOM - Cooma Snowy Mtns, Australia
Distance from station: S 110km
Updated: Thu, 23-Nov-2017 11:00pm AEDT
Mostly cloudy
Mostly cloudy
 Wind from NW
Wind: NW 13 km/h
Temperature: 12°C
Dew Point: 11°C
Humidity: 94%
Barometer: 1018 hPa
Clouds: Mostly cloudy
Visibility: 10 km
Cloud details: Mostly cloudy 2225 m
Mostly cloudy 3200 m
2017/11/23 12:00 YCOM 231200Z AUTO 32007KT 9999 // BKN073 BKN105 12/11 Q1018
 
YSNW - Nowra (aus-Navy), Australia
Distance from station: ENE 127km
Updated: Thu, 23-Nov-2017 11:00pm AEDT
Partly cloudy
Partly cloudy
 Wind from W
Wind: W 7 km/h
Temperature: 17°C
Dew Point: 15°C
Humidity: 88%
Barometer: 1016 hPa
Clouds: Partly cloudy
Visibility: 10 km
Cloud details: Partly cloudy 3505 m
2017/11/23 12:00 YSNW 231200Z AUTO 28004KT 9999 // SCT115 17/15 Q1016
YSWG - Wagga Wagga(Cv/M, Australia
Distance from station: W 159km
Updated: Fri, 24-Nov-2017 12:00am AEDT
Partly cloudy
Partly cloudy
 Wind from ESE
Wind: ESE 20 km/h
Temperature: 21°C
Dew Point: 10°C
Humidity: 50%
Barometer: 1014 hPa
Clouds: Partly cloudy
Visibility: 10 km
Cloud details: Partly cloudy 3505 m
2017/11/23 13:00 YSWG 231300Z AUTO 11011KT 9999 // SCT115 21/10 Q1014
 
YMER - Merimbula Arpt, Australia
Distance from station: SSE 187km
Updated: Fri, 24-Nov-2017 12:00am AEDT
Clear
Clear
 Wind from calm
Wind: Calm
Temperature: 14°C
Dew Point: 12°C
Humidity: 88%
Barometer: 1014 hPa
Clouds: Clear
Visibility: 10 km
2017/11/23 13:00 YMER 231300Z AUTO 00000KT 9999 // NCD 14/12 Q1014
YMAY - Albury Airport, Australia
Distance from station: WSW 220km
Updated: Fri, 24-Nov-2017 12:00am AEDT
Mostly cloudy
Mostly cloudy
 Wind from E
Wind: E 4 km/h
Temperature: 21°C
Dew Point: 13°C
Humidity: 60%
Barometer: 1013 hPa
Clouds: Mostly cloudy
Visibility: 10 km
Cloud details: Mostly cloudy 3810 m
2017/11/23 13:00 YMAY 231300Z AUTO 08002KT 9999 // BKN125 21/13 Q1013
 
YSSY - Sydney Intl Airp, Australia
Distance from station: NE 236km
Updated: Fri, 24-Nov-2017 12:00am AEDT
Clear
Clear
 Wind from NNE
Wind: NNE 17 km/h
Temperature: 21°C
Dew Point: 16°C
Humidity: 73%
Barometer: 1016 hPa
Summary: Clear
Visibility: greater than 10 km
2017/11/23 13:00 YSSY 231300Z 03009KT CAVOK 21/16 Q1016 NOSIG
YSRI - Richmond (aus-Af, Australia
Distance from station: NE 240km
Updated: Fri, 24-Nov-2017 12:00am AEDT
Clear
Clear
 Wind from SW
Wind: SW 9 km/h
Temperature: 19°C
Dew Point: 16°C
Humidity: 83%
Barometer: 1016 hPa
Clouds: Clear
Visibility: 10 km
2017/11/23 13:00 YSRI 231300Z AUTO 23005KT 9999 // NCD 19/16 Q1016
 
YNAR - Narrandera, Australia
Distance from station: WNW 254km
Updated: Thu, 23-Nov-2017 11:00pm AEDT

 Wind from ENE
Wind: ENE 15 km/h
Temperature: 26°C
Dew Point: 7°C
Humidity: 30%
Barometer: 1012 hPa
2017/11/23 12:00 YNAR 231200Z AUTO 06008KT //// // ////// 26/07 Q1012
YWGT - Wangaratta Arp, Australia
Distance from station: WSW 288km
Updated: Fri, 24-Nov-2017 12:00am AEDT
Partly cloudy
Partly cloudy
 Wind from ESE
Wind: ESE 2 km/h
Temperature: 18°C
Dew Point: 12°C
Humidity: 68%
Barometer: 1013 hPa
Clouds: Partly cloudy
Visibility: 10 km
Cloud details: Partly cloudy 3658 m
2017/11/23 13:00 YWGT 231300Z AUTO 11001KT 9999 // SCT120 18/12 Q1013